ADDS METAR Data INFO
IDs: Format: Raw Decoded Include TAF

Data at: 1928 UTC 19 Jul 2018

KPCM 191855Z AUTO 26009KT 10SM SCT027 SCT036 SCT050 32/23 A3000 RMK AO2
KPCM 191835Z AUTO 25009KT 10SM SCT026 SCT034 SCT050 30/21 A3001 RMK AO2
KPCM 191815Z AUTO 25011G15KT 10SM SCT030 31/25 A3000 RMK AO2
KPCM 191755Z AUTO 28006KT 10SM SCT030 SCT044 31/25 A3001 RMK AO2
KPCM 191735Z AUTO 02003KT 10SM CLR 29/24 A3002 RMK AO2
KPCM 191715Z AUTO 35003KT 10SM SCT023 SCT034 BKN070 28/23 A3003 RMK AO2
KPCM 191655Z AUTO 28005KT 10SM SCT022 BKN028 OVC044 28/23 A3004 RMK AO2
KPCM 181755Z AUTO 17005KT 7SM -RA SCT028 SCT050 BKN065 28/24 A3007 RMK AO2
KPCM 181735Z AUTO 11003KT 10SM SCT030 SCT048 29/23 A3006 RMK AO2
KPCM 181715Z AUTO 00000KT 10SM SCT030 SCT040 SCT048 28/23 A3007 RMK AO2
KPCM 181655Z AUTO 28007KT 10SM SCT035 SCT050 SCT070 28/22 A3006 RMK AO2
KPCM 181635Z AUTO 29012G20KT 10SM BKN034 BKN044 BKN065 31/23 A3007 RMK AO2
KPCM 181615Z AUTO 24007G15KT 10SM BKN034 BKN047 BKN055 31/23 A3007 RMK AO2
KPCM 181555Z AUTO 24012G15KT 10SM SCT030 SCT036 33/23 A3007 RMK AO2
KPCM 181535Z AUTO 22007KT 10SM SCT030 SCT039 SCT075 31/23 A3006 RMK AO2
KPCM 181515Z AUTO 24009KT 10SM SCT030 SCT042 SCT050 31/24 A3007 RMK AO2
KPCM 181455Z AUTO 23006KT 10SM SCT028 BKN038 BKN049 32/24 A3006 RMK AO2
KPCM 181435Z AUTO 24008KT 10SM SCT026 SCT036 32/24 A3007 RMK AO2
KPCM 181415Z AUTO 21007KT 10SM SCT024 31/24 A3007 RMK AO2
KPCM 181355Z AUTO 22008KT 10SM SCT022 31/24 A3007 RMK AO2
KPCM 181335Z AUTO 21006KT 10SM CLR 30/25 A3007 RMK AO2
KPCM 181315Z AUTO 21006KT 10SM CLR 30/25 A3008 RMK AO2
KPCM 181255Z AUTO 23005KT 10SM CLR 29/25 A3008 RMK AO2
KPCM 181235Z AUTO 22004KT 10SM SCT090 29/25 A3007 RMK AO2
KPCM 181215Z AUTO 17005KT 10SM CLR 28/25 A3007 RMK AO2
KPCM 181155Z AUTO 17003KT 10SM CLR 28/25 A3007 RMK AO2
KPCM 181135Z AUTO 18004KT 10SM CLR 27/25 A3007 RMK AO2
KPCM 181115Z AUTO 18003KT 10SM CLR 26/25 A3006 RMK AO2
KPCM 181055Z AUTO 17004KT 10SM CLR 26/25 A3005 RMK AO2